createdAt,value
2018-06-27T00:00:50.598Z,10.07
2018-06-27T00:03:17.703Z,7.67
2018-06-27T00:05:44.816Z,6.70
2018-06-27T00:08:12.449Z,10.20
2018-06-27T00:10:39.587Z,13.00
2018-06-27T00:13:06.707Z,10.17
2018-06-27T00:15:33.837Z,10.43
2018-06-27T00:18:01.041Z,13.53
2018-06-27T00:20:28.159Z,11.20
2018-06-27T00:22:55.444Z,7.90
2018-06-27T00:25:22.620Z,7.47
2018-06-27T00:27:49.761Z,9.13
2018-06-27T00:30:17.116Z,6.50
2018-06-27T00:32:44.240Z,7.30
2018-06-27T00:35:11.439Z,7.20
2018-06-27T00:37:38.529Z,7.00
2018-06-27T00:40:05.693Z,6.43
2018-06-27T00:42:32.949Z,6.93
2018-06-27T00:45:00.139Z,6.40
2018-06-27T00:47:27.257Z,7.53
2018-06-27T00:49:54.385Z,7.00
2018-06-27T00:52:21.496Z,7.23
2018-06-27T00:54:48.609Z,7.20
2018-06-27T00:57:15.729Z,9.17
2018-06-27T00:59:43.103Z,7.13
2018-06-27T01:02:10.226Z,7.47
2018-06-27T01:04:37.365Z,10.43
2018-06-27T01:07:04.719Z,7.20
2018-06-27T01:09:31.823Z,8.40
2018-06-27T01:11:58.938Z,8.90
2018-06-27T01:14:26.029Z,6.80
2018-06-27T01:16:53.202Z,8.30
2018-06-27T01:19:20.306Z,5.93
2018-06-27T01:21:47.798Z,7.70
2018-06-27T01:24:14.949Z,8.53
2018-06-27T01:26:42.038Z,8.93
2018-06-27T01:29:09.161Z,8.80
2018-06-27T01:31:36.317Z,6.97
2018-06-27T01:34:03.429Z,6.23
2018-06-27T01:36:30.533Z,7.00
2018-06-27T01:38:57.840Z,6.70
2018-06-27T01:41:24.945Z,6.77
2018-06-27T01:43:52.065Z,8.00
2018-06-27T01:46:19.171Z,7.70
2018-06-27T01:48:46.270Z,7.47
2018-06-27T01:51:13.398Z,8.03
2018-06-27T01:53:40.619Z,6.70
2018-06-27T01:56:09.285Z,6.20
2018-06-27T01:58:36.404Z,6.73
2018-06-27T02:01:03.554Z,7.00
2018-06-27T02:03:30.670Z,6.60
2018-06-27T02:05:57.786Z,8.20
2018-06-27T02:08:24.877Z,6.27
2018-06-27T02:10:52.097Z,7.63
2018-06-27T02:13:19.200Z,7.03
2018-06-27T02:15:46.404Z,11.20
2018-06-27T02:18:13.533Z,8.40
2018-06-27T02:20:40.657Z,6.93
2018-06-27T02:23:10.488Z,5.70
2018-06-27T02:25:38.210Z,6.60
2018-06-27T02:28:05.570Z,5.27
2018-06-27T02:30:32.658Z,6.00
2018-06-27T02:32:59.873Z,6.87
2018-06-27T02:35:26.969Z,6.67
2018-06-27T02:37:54.081Z,6.97
2018-06-27T02:40:21.177Z,6.50
2018-06-27T02:42:48.304Z,6.40
2018-06-27T02:45:15.473Z,6.47
2018-06-27T02:47:42.572Z,6.90
2018-06-27T02:50:09.692Z,6.27
2018-06-27T02:52:36.827Z,6.70
2018-06-27T02:55:03.944Z,6.53
2018-06-27T02:57:31.065Z,6.90
2018-06-27T02:59:58.174Z,8.37
2018-06-27T03:02:25.444Z,9.10
2018-06-27T03:04:52.530Z,7.87
2018-06-27T03:07:19.670Z,6.97
2018-06-27T03:09:46.791Z,7.20
2018-06-27T03:12:13.985Z,5.80
2018-06-27T03:14:41.081Z,10.40
2018-06-27T03:17:08.185Z,5.97
2018-06-27T03:19:35.293Z,6.40
2018-06-27T03:22:02.378Z,6.67
2018-06-27T03:24:29.561Z,6.37
2018-06-27T03:26:56.685Z,6.10
2018-06-27T03:29:23.784Z,6.33
2018-06-27T03:31:51.026Z,7.60
2018-06-27T03:34:18.195Z,7.47
2018-06-27T03:36:45.388Z,7.00
2018-06-27T03:39:12.470Z,6.87
2018-06-27T03:41:39.601Z,6.37
2018-06-27T03:44:07.061Z,7.63
2018-06-27T03:46:34.190Z,6.07
2018-06-27T03:49:01.468Z,7.10
2018-06-27T03:51:28.590Z,9.00
2018-06-27T03:53:58.157Z,7.40
2018-06-27T03:56:25.649Z,7.37
2018-06-27T03:58:52.810Z,7.77
2018-06-27T04:01:19.853Z,6.50
2018-06-27T04:03:47.029Z,6.00
2018-06-27T04:06:14.146Z,8.77
2018-06-27T04:08:41.266Z,7.97
2018-06-27T04:11:08.352Z,6.47
2018-06-27T04:13:35.667Z,6.20
2018-06-27T04:16:02.765Z,8.00
2018-06-27T04:18:30.305Z,5.67
2018-06-27T04:20:57.678Z,6.50
2018-06-27T04:23:24.844Z,6.37
2018-06-27T04:25:51.986Z,6.00
2018-06-27T04:28:19.146Z,9.37
2018-06-27T04:30:46.293Z,6.43
2018-06-27T04:33:13.380Z,7.53
2018-06-27T04:35:40.489Z,7.87
2018-06-27T04:38:07.637Z,7.70
2018-06-27T04:40:34.777Z,6.47
2018-06-27T04:43:01.879Z,7.77
2018-06-27T04:45:28.984Z,8.60
2018-06-27T04:47:56.101Z,7.10
2018-06-27T04:50:23.202Z,6.50
2018-06-27T04:52:50.394Z,6.30
2018-06-27T04:55:17.519Z,7.07
2018-06-27T04:57:44.619Z,7.17
2018-06-27T05:00:11.741Z,6.83
2018-06-27T05:02:38.841Z,6.60
2018-06-27T05:05:06.054Z,6.93
2018-06-27T05:07:33.296Z,6.80
2018-06-27T05:10:00.327Z,7.87
2018-06-27T05:12:27.428Z,6.83
2018-06-27T05:14:54.529Z,8.10
2018-06-27T05:17:22.006Z,6.77
2018-06-27T05:19:49.096Z,7.10
2018-06-27T05:22:16.200Z,7.70
2018-06-27T05:24:43.677Z,9.20
2018-06-27T05:27:10.772Z,7.20
2018-06-27T05:29:38.005Z,7.17
2018-06-27T05:32:05.243Z,9.87
2018-06-27T05:34:32.642Z,8.20
2018-06-27T05:37:01.584Z,11.40
2018-06-27T05:39:32.201Z,11.37
2018-06-27T05:42:00.688Z,10.70
2018-06-27T05:44:31.651Z,15.83
2018-06-27T05:47:03.829Z,15.00
2018-06-27T05:49:31.001Z,17.10
2018-06-27T05:51:58.390Z,16.60
2018-06-27T05:54:25.524Z,14.70
2018-06-27T05:56:52.649Z,15.67
2018-06-27T05:59:20.829Z,14.90
2018-06-27T06:01:50.436Z,17.00
2018-06-27T06:04:20.246Z,13.93
2018-06-27T06:06:49.862Z,15.57
2018-06-27T06:09:16.997Z,15.47
2018-06-27T06:11:44.100Z,12.17
2018-06-27T06:14:11.234Z,12.43
2018-06-27T06:16:38.354Z,14.43
2018-06-27T06:19:06.986Z,16.23
2018-06-27T06:21:34.285Z,11.80
2018-06-27T06:24:03.323Z,14.40
2018-06-27T06:26:32.581Z,15.03
2018-06-27T06:29:01.824Z,11.60
2018-06-27T06:31:29.020Z,16.17
2018-06-27T06:33:56.236Z,13.90
2018-06-27T06:36:23.397Z,11.90
2018-06-27T06:38:50.513Z,12.53
2018-06-27T06:41:17.601Z,12.30
2018-06-27T06:43:44.728Z,10.53
2018-06-27T06:46:11.872Z,9.40
2018-06-27T06:48:38.944Z,12.30
2018-06-27T06:51:06.050Z,10.27
2018-06-27T06:53:33.198Z,10.83
2018-06-27T06:56:00.495Z,11.10
2018-06-27T06:58:27.688Z,9.57
2018-06-27T07:00:54.802Z,10.53
2018-06-27T07:03:21.910Z,17.53
2018-06-27T07:05:49.001Z,9.67
2018-06-27T07:08:16.109Z,10.90
2018-06-27T07:10:43.318Z,9.07
2018-06-27T07:13:10.421Z,11.43
2018-06-27T07:15:37.532Z,10.47
2018-06-27T07:18:04.929Z,11.23
2018-06-27T07:20:32.084Z,11.33
2018-06-27T07:22:59.205Z,12.60
2018-06-27T07:25:26.317Z,10.77
2018-06-27T07:27:53.422Z,9.87
2018-06-27T07:30:20.521Z,10.40
2018-06-27T07:32:47.718Z,10.07
2018-06-27T07:35:14.838Z,13.80
2018-06-27T07:37:41.968Z,11.43
2018-06-27T07:40:09.157Z,9.67
2018-06-27T07:42:36.281Z,12.00
2018-06-27T07:45:03.415Z,9.90
2018-06-27T07:47:30.506Z,9.03
2018-06-27T07:49:57.618Z,12.23
2018-06-27T07:52:24.729Z,10.50
2018-06-27T07:54:51.821Z,7.87
2018-06-27T07:57:18.946Z,10.90
2018-06-27T07:59:46.065Z,12.90
2018-06-27T08:02:13.177Z,10.63
2018-06-27T08:04:40.365Z,11.63
2018-06-27T08:07:07.625Z,8.50
2018-06-27T08:09:34.717Z,8.00
2018-06-27T08:12:01.898Z,11.73
2018-06-27T08:14:29.017Z,10.00
2018-06-27T08:16:56.121Z,8.83
2018-06-27T08:19:23.260Z,10.70
2018-06-27T08:21:50.388Z,9.17
2018-06-27T08:24:17.537Z,6.70
2018-06-27T08:26:44.639Z,7.87
2018-06-27T08:29:11.820Z,7.13
2018-06-27T08:31:38.901Z,8.57
2018-06-27T08:34:06.033Z,7.63
2018-06-27T08:36:33.153Z,9.83
2018-06-27T08:39:00.242Z,7.53
2018-06-27T08:41:27.373Z,6.67
2018-06-27T08:43:54.502Z,7.73
2018-06-27T08:46:21.605Z,7.93
2018-06-27T08:48:48.797Z,7.30
2018-06-27T08:51:15.905Z,7.03
2018-06-27T08:53:43.064Z,6.87
2018-06-27T08:56:10.177Z,8.03
2018-06-27T08:58:37.392Z,6.23
2018-06-27T09:01:04.505Z,8.43
2018-06-27T09:03:31.837Z,6.10
2018-06-27T09:05:58.941Z,6.67
2018-06-27T09:08:26.042Z,8.53
2018-06-27T09:10:53.182Z,6.03
2018-06-27T09:13:21.162Z,7.60
2018-06-27T09:15:48.325Z,6.43
2018-06-27T09:18:15.489Z,8.57
2018-06-27T09:20:42.602Z,6.70
2018-06-27T09:23:09.726Z,12.97
2018-06-27T09:25:36.864Z,5.90
2018-06-27T09:28:03.955Z,6.47
2018-06-27T09:30:31.069Z,7.30
2018-06-27T09:32:58.243Z,6.40
2018-06-27T09:35:25.353Z,6.00
2018-06-27T09:37:52.460Z,6.30
2018-06-27T09:40:19.569Z,6.10
2018-06-27T09:42:46.659Z,9.20
2018-06-27T09:45:13.921Z,5.83
2018-06-27T09:47:41.041Z,6.03
2018-06-27T09:50:08.150Z,5.50
2018-06-27T09:52:35.401Z,5.50
2018-06-27T09:55:02.549Z,7.37
2018-06-27T09:57:29.660Z,5.00
2018-06-27T09:59:56.790Z,5.73
2018-06-27T10:02:23.897Z,5.30
2018-06-27T10:04:51.258Z,6.80
2018-06-27T10:07:18.438Z,4.97
2018-06-27T10:09:45.558Z,5.17
2018-06-27T10:12:12.744Z,4.77
2018-06-27T10:14:39.853Z,5.97
2018-06-27T10:17:06.983Z,6.20
2018-06-27T10:19:34.066Z,4.70
2018-06-27T10:22:01.266Z,4.60
2018-06-27T10:24:28.366Z,4.63
2018-06-27T10:26:55.481Z,5.60
2018-06-27T10:29:22.633Z,4.87
2018-06-27T10:31:49.760Z,4.97
2018-06-27T10:34:16.977Z,4.40
2018-06-27T10:36:44.385Z,6.00
2018-06-27T10:39:11.749Z,7.70
2018-06-27T10:41:39.109Z,5.40
2018-06-27T10:44:06.348Z,4.47
2018-06-27T10:46:33.519Z,4.60
2018-06-27T10:49:00.653Z,5.50
2018-06-27T10:51:27.768Z,4.30
2018-06-27T10:53:54.881Z,4.53
2018-06-27T10:56:22.021Z,4.43
2018-06-27T10:58:49.174Z,3.77
2018-06-27T11:01:16.338Z,7.13
2018-06-27T11:03:43.721Z,5.30
2018-06-27T11:06:10.848Z,4.53
2018-06-27T11:08:37.981Z,6.13
2018-06-27T11:11:05.083Z,4.33
2018-06-27T11:13:32.194Z,4.33
2018-06-27T11:15:59.314Z,4.03
2018-06-27T11:18:26.525Z,3.10
2018-06-27T11:20:53.746Z,5.13
2018-06-27T11:23:20.849Z,3.13
2018-06-27T11:25:48.017Z,3.87
2018-06-27T11:28:15.121Z,2.80
2018-06-27T11:30:42.245Z,4.53
2018-06-27T11:33:09.455Z,3.30
2018-06-27T11:35:36.547Z,2.43
2018-06-27T11:38:03.836Z,2.57
2018-06-27T11:40:30.981Z,2.23
2018-06-27T11:42:58.170Z,2.50
2018-06-27T11:45:25.309Z,2.50
2018-06-27T11:47:52.449Z,2.50
2018-06-27T11:50:19.578Z,2.50
2018-06-27T11:52:46.689Z,2.80
2018-06-27T11:55:13.809Z,2.40
2018-06-27T11:57:42.088Z,2.30
2018-06-27T12:00:09.301Z,2.50
2018-06-27T12:02:36.529Z,4.43
2018-06-27T12:05:03.797Z,3.37
2018-06-27T12:07:30.958Z,4.07
2018-06-27T12:09:58.377Z,2.70
2018-06-27T12:12:25.494Z,2.53
2018-06-27T12:14:52.697Z,2.63
2018-06-27T12:17:19.949Z,2.40
2018-06-27T12:19:47.066Z,2.30
2018-06-27T12:22:14.185Z,5.23
2018-06-27T12:24:41.314Z,2.50
2018-06-27T12:27:08.426Z,2.80
2018-06-27T12:29:35.551Z,7.20
2018-06-27T12:32:02.666Z,2.53
2018-06-27T12:34:29.854Z,4.87
2018-06-27T12:36:56.972Z,2.20
2018-06-27T12:39:24.097Z,2.50
2018-06-27T12:41:51.215Z,2.77
2018-06-27T12:44:18.625Z,2.60
2018-06-27T12:46:45.685Z,3.67
2018-06-27T12:49:12.806Z,2.63
2018-06-27T12:51:39.921Z,2.77
2018-06-27T12:54:07.049Z,3.67
2018-06-27T12:56:34.159Z,2.77
2018-06-27T12:59:01.261Z,3.37
2018-06-27T13:01:28.437Z,4.10
2018-06-27T13:03:55.701Z,2.60
2018-06-27T13:06:22.797Z,2.23
2018-06-27T13:08:50.174Z,2.50
2018-06-27T13:11:17.229Z,4.60
2018-06-27T13:13:44.338Z,7.33
2018-06-27T13:16:11.467Z,2.30
2018-06-27T13:18:38.698Z,2.20
2018-06-27T13:21:05.829Z,2.30
2018-06-27T13:23:33.546Z,2.83
2018-06-27T13:26:00.808Z,2.60
2018-06-27T13:28:28.006Z,4.00
2018-06-27T13:30:55.162Z,3.00
2018-06-27T13:33:22.276Z,2.40
2018-06-27T13:35:49.397Z,2.40
2018-06-27T13:38:16.513Z,2.50
2018-06-27T13:40:43.621Z,5.70
2018-06-27T13:43:10.834Z,5.30
2018-06-27T13:45:38.021Z,6.13
2018-06-27T13:48:05.285Z,3.43
2018-06-27T13:50:34.481Z,3.37
2018-06-27T13:53:02.094Z,2.70
2018-06-27T13:55:29.421Z,2.93
2018-06-27T13:57:56.551Z,2.90
2018-06-27T14:00:23.653Z,4.83
2018-06-27T14:02:50.753Z,2.73
2018-06-27T14:05:17.874Z,2.60
2018-06-27T14:07:44.971Z,4.37
2018-06-27T14:10:12.142Z,3.80
2018-06-27T14:12:39.251Z,2.80
2018-06-27T14:15:06.362Z,3.30
2018-06-27T14:17:33.689Z,4.73
2018-06-27T14:20:00.841Z,4.80
2018-06-27T14:22:27.963Z,4.57
2018-06-27T14:24:55.077Z,2.90
2018-06-27T14:27:22.202Z,2.97
2018-06-27T14:29:49.345Z,4.17
2018-06-27T14:32:16.477Z,10.37
2018-06-27T14:34:43.651Z,4.17
2018-06-27T14:37:10.749Z,3.00
2018-06-27T14:39:37.913Z,3.00
2018-06-27T14:42:05.314Z,4.50
2018-06-27T14:44:32.456Z,4.47
2018-06-27T14:46:59.634Z,4.10
2018-06-27T14:49:26.769Z,3.00
2018-06-27T14:51:53.862Z,3.10
2018-06-27T14:54:21.001Z,3.10
2018-06-27T14:56:48.194Z,3.13
2018-06-27T14:59:15.353Z,3.53
2018-06-27T15:01:42.484Z,2.97
2018-06-27T15:04:09.635Z,2.60
2018-06-27T15:06:36.906Z,5.13
2018-06-27T15:09:05.554Z,2.30
2018-06-27T15:11:32.702Z,2.50
2018-06-27T15:13:59.805Z,2.40
2018-06-27T15:16:26.941Z,2.40
2018-06-27T15:18:54.069Z,2.93
2018-06-27T15:21:21.312Z,2.30
2018-06-27T15:23:48.548Z,2.27
2018-06-27T15:26:15.568Z,2.10
2018-06-27T15:28:42.662Z,3.83
2018-06-27T15:31:09.822Z,4.73
2018-06-27T15:33:36.984Z,2.23
2018-06-27T15:36:04.297Z,2.10
2018-06-27T15:38:31.395Z,2.13
2018-06-27T15:40:58.542Z,4.03
2018-06-27T15:43:25.671Z,3.57
2018-06-27T15:45:52.776Z,3.67
2018-06-27T15:48:19.973Z,2.00
2018-06-27T15:50:47.079Z,2.93
2018-06-27T15:53:14.201Z,2.90
2018-06-27T15:55:41.405Z,2.90
2018-06-27T15:58:08.525Z,4.13
2018-06-27T16:00:35.667Z,2.40
2018-06-27T16:03:02.922Z,2.73
2018-06-27T16:05:30.038Z,2.20
2018-06-27T16:07:57.146Z,2.50
2018-06-27T16:10:24.262Z,4.63
2018-06-27T16:12:51.462Z,2.43
2018-06-27T16:15:18.574Z,2.17
2018-06-27T16:17:45.682Z,2.40
2018-06-27T16:20:12.795Z,2.23
2018-06-27T16:22:39.987Z,2.50
2018-06-27T16:25:07.177Z,5.43
2018-06-27T16:27:34.288Z,3.53
2018-06-27T16:30:01.430Z,2.63
2018-06-27T16:32:28.614Z,2.57
2018-06-27T16:34:55.718Z,2.37
2018-06-27T16:37:23.811Z,2.53
2018-06-27T16:39:50.933Z,3.77
2018-06-27T16:42:18.056Z,2.43
2018-06-27T16:44:45.253Z,2.50
2018-06-27T16:47:12.796Z,2.27
2018-06-27T16:49:39.945Z,3.13
2018-06-27T16:52:07.103Z,3.23
2018-06-27T16:54:34.240Z,3.80
2018-06-27T16:57:01.403Z,2.33
2018-06-27T16:59:28.501Z,2.77
2018-06-27T17:01:55.673Z,2.87
2018-06-27T17:04:22.754Z,2.50
2018-06-27T17:06:50.004Z,3.03
2018-06-27T17:09:17.050Z,3.07
2018-06-27T17:11:44.244Z,4.17
2018-06-27T17:14:11.415Z,3.30
2018-06-27T17:16:38.539Z,2.47
2018-06-27T17:19:05.714Z,4.37
2018-06-27T17:21:33.434Z,2.33
2018-06-27T17:24:00.553Z,5.60
2018-06-27T17:26:27.683Z,2.53
2018-06-27T17:28:54.815Z,2.60
2018-06-27T17:31:22.018Z,2.63
2018-06-27T17:33:49.389Z,2.73
2018-06-27T17:36:16.519Z,2.50
2018-06-27T17:38:43.634Z,3.20
2018-06-27T17:41:11.041Z,2.87
2018-06-27T17:43:38.272Z,2.80
2018-06-27T17:46:05.447Z,2.83
2018-06-27T17:48:32.557Z,3.00
2018-06-27T17:50:59.689Z,3.03
2018-06-27T17:53:26.809Z,4.77
2018-06-27T17:55:53.952Z,3.07
2018-06-27T17:58:21.086Z,2.87
2018-06-27T18:00:48.202Z,4.13
2018-06-27T18:03:15.301Z,3.13
2018-06-27T18:05:42.423Z,3.07
2018-06-27T18:08:09.698Z,3.30
2018-06-27T18:10:36.782Z,3.77
2018-06-27T18:13:03.937Z,3.10
2018-06-27T18:15:31.123Z,3.17
2018-06-27T18:17:58.299Z,3.17
2018-06-27T18:20:25.425Z,3.07
2018-06-27T18:22:53.701Z,2.87
2018-06-27T18:25:21.290Z,3.40
2018-06-27T18:27:50.005Z,3.10
2018-06-27T18:30:17.522Z,5.37
2018-06-27T18:32:47.173Z,3.67
2018-06-27T18:35:18.646Z,3.17
2018-06-27T18:37:48.325Z,2.93
2018-06-27T18:40:15.670Z,3.20
2018-06-27T18:42:43.650Z,4.83
2018-06-27T18:45:10.987Z,7.37
2018-06-27T18:47:38.275Z,3.10
2018-06-27T18:50:05.710Z,3.90
2018-06-27T18:52:34.173Z,3.60
2018-06-27T18:55:04.236Z,3.33
2018-06-27T18:57:32.975Z,2.77
2018-06-27T19:00:00.109Z,3.00
2018-06-27T19:02:27.250Z,2.77
2018-06-27T19:04:54.515Z,2.40
2018-06-27T19:07:21.993Z,2.17
2018-06-27T19:09:49.100Z,2.40
2018-06-27T19:12:16.353Z,2.53
2018-06-27T19:14:43.470Z,2.47
2018-06-27T19:17:10.745Z,2.60
2018-06-27T19:19:38.458Z,2.57
2018-06-27T19:22:05.638Z,2.70
2018-06-27T19:24:32.777Z,3.00
2018-06-27T19:26:59.898Z,2.50
2018-06-27T19:29:27.043Z,2.90
2018-06-27T19:31:54.152Z,2.93
2018-06-27T19:34:21.388Z,3.47
2018-06-27T19:36:48.576Z,2.77
2018-06-27T19:39:15.775Z,2.33
2018-06-27T19:41:43.097Z,2.47
2018-06-27T19:44:10.510Z,2.60
2018-06-27T19:46:37.625Z,3.10
2018-06-27T19:49:04.820Z,2.50
2018-06-27T19:51:32.295Z,2.80
2018-06-27T19:53:59.426Z,2.23
2018-06-27T19:56:26.578Z,2.40
2018-06-27T19:58:53.678Z,2.60
2018-06-27T20:01:20.801Z,2.70
2018-06-27T20:03:48.009Z,2.50
2018-06-27T20:06:15.233Z,4.50
2018-06-27T20:08:42.393Z,2.87
2018-06-27T20:11:09.588Z,2.90
2018-06-27T20:13:36.787Z,3.20
2018-06-27T20:16:04.114Z,3.10
2018-06-27T20:18:31.202Z,2.83
2018-06-27T20:20:58.325Z,3.27
2018-06-27T20:23:26.261Z,3.40
2018-06-27T20:25:53.418Z,3.03
2018-06-27T20:28:20.522Z,3.23
2018-06-27T20:30:47.677Z,2.63
2018-06-27T20:33:14.786Z,2.57
2018-06-27T20:35:41.942Z,2.77
2018-06-27T20:38:09.113Z,2.67
2018-06-27T20:40:36.261Z,3.20
2018-06-27T20:43:03.366Z,2.90
2018-06-27T20:45:30.514Z,3.10
2018-06-27T20:47:57.634Z,3.00
2018-06-27T20:50:24.765Z,2.87
2018-06-27T20:52:51.886Z,3.33
2018-06-27T20:55:19.025Z,2.60
2018-06-27T20:57:46.125Z,3.07
2018-06-27T21:00:13.353Z,2.80
2018-06-27T21:02:40.487Z,2.80
2018-06-27T21:05:07.688Z,8.50
2018-06-27T21:07:34.843Z,2.70
2018-06-27T21:10:02.065Z,2.87
2018-06-27T21:12:29.189Z,2.90
2018-06-27T21:14:56.318Z,3.13
2018-06-27T21:17:23.503Z,2.83
2018-06-27T21:19:50.633Z,3.13
2018-06-27T21:22:17.777Z,3.00
2018-06-27T21:24:44.921Z,2.60
2018-06-27T21:27:12.125Z,2.83
2018-06-27T21:29:39.213Z,2.73
2018-06-27T21:32:06.421Z,3.00
2018-06-27T21:34:33.511Z,2.70
2018-06-27T21:37:00.685Z,3.00
2018-06-27T21:39:27.794Z,2.53
2018-06-27T21:41:54.975Z,2.80
2018-06-27T21:44:22.077Z,4.57
2018-06-27T21:46:49.293Z,2.90
2018-06-27T21:49:16.422Z,3.73
2018-06-27T21:51:43.590Z,4.37
2018-06-27T21:54:10.693Z,2.70
2018-06-27T21:56:37.813Z,3.20
2018-06-27T21:59:04.953Z,3.13
2018-06-27T22:01:32.061Z,6.00
2018-06-27T22:03:59.178Z,3.57
2018-06-27T22:06:26.293Z,2.87
2018-06-27T22:08:53.409Z,2.70
2018-06-27T22:11:20.533Z,5.30
2018-06-27T22:13:47.686Z,4.53
2018-06-27T22:16:14.791Z,6.20
2018-06-27T22:18:41.909Z,2.87
2018-06-27T22:21:09.017Z,2.87
2018-06-27T22:23:36.134Z,3.80
2018-06-27T22:26:03.245Z,2.90
2018-06-27T22:28:30.358Z,2.60
2018-06-27T22:30:57.474Z,3.50
2018-06-27T22:33:24.585Z,3.20
2018-06-27T22:35:51.690Z,2.80
2018-06-27T22:38:18.785Z,3.93
2018-06-27T22:40:45.984Z,2.87
2018-06-27T22:43:13.092Z,4.50
2018-06-27T22:45:40.205Z,3.73
2018-06-27T22:48:07.319Z,3.10
2018-06-27T22:50:34.462Z,2.90
2018-06-27T22:53:01.570Z,2.77
2018-06-27T22:55:28.768Z,4.10
2018-06-27T22:57:55.904Z,3.40
2018-06-27T23:00:24.127Z,6.17
2018-06-27T23:02:51.673Z,3.07
2018-06-27T23:05:18.869Z,7.50
2018-06-27T23:07:46.062Z,3.17
2018-06-27T23:10:13.174Z,6.33
2018-06-27T23:12:40.290Z,5.30
2018-06-27T23:15:07.423Z,3.10
2018-06-27T23:17:34.529Z,3.43
2018-06-27T23:20:01.652Z,3.00
2018-06-27T23:22:34.326Z,2.90
2018-06-27T23:25:01.438Z,3.00
2018-06-27T23:27:28.841Z,3.30
2018-06-27T23:29:55.981Z,2.80
2018-06-27T23:32:23.081Z,3.57
2018-06-27T23:34:50.249Z,2.77
2018-06-27T23:37:17.381Z,3.07
2018-06-27T23:39:44.565Z,8.20
2018-06-27T23:42:11.693Z,2.67
2018-06-27T23:44:38.797Z,2.87
2018-06-27T23:47:06.113Z,4.07
2018-06-27T23:49:33.307Z,3.40
2018-06-27T23:52:00.368Z,5.63
2018-06-27T23:54:27.603Z,3.17
2018-06-27T23:56:54.713Z,2.93
2018-06-27T23:59:21.897Z,2.80
